Time;durP1;ratioP1;P1;durP2;ratioP2;P2;SDS_P1;SDS_P2;PMS_P1;PMS_P2;Temp;Humidity;BMP_temperature;BMP_pressure;BME280_temperature;BME280_humidity;BME280_pressure;Samples;Min_cycle;Max_cycle;Signal;HPM_P1;HPM_P2
2023/10/25 00:01:05;;;;;;;28.50;21.87;;;;;;;;;;5074154;28;20944;-82
2023/10/25 00:03:32;;;;;;;30.73;20.93;;;;;;;;;;5073666;28;20473;-82
2023/10/25 00:05:59;;;;;;;28.70;20.43;;;;;;;;;;5073713;28;20443;-83
2023/10/25 00:08:26;;;;;;;32.63;22.33;;;;;;;;;;5074270;28;20434;-83
2023/10/25 00:10:59;;;;;;;31.23;21.43;;;;;;;;;;5073284;28;20438;-82
2023/10/25 00:13:25;;;;;;;37.07;23.90;;;;;;;;;;5072919;28;20577;-83
2023/10/25 00:15:52;;;;;;;33.47;23.13;;;;;;;;;;5074376;28;20439;-83
2023/10/25 00:18:18;;;;;;;38.27;22.83;;;;;;;;;;5072811;28;20477;-82
2023/10/25 00:20:45;;;;;;;35.87;23.77;;;;;;;;;;5073077;28;20455;-82
2023/10/25 00:23:12;;;;;;;34.87;24.90;;;;;;;;;;5074036;28;20830;-83
2023/10/25 00:25:39;;;;;;;33.73;24.43;;;;;;;;;;5073168;28;20440;-83
2023/10/25 00:28:05;;;;;;;33.37;23.60;;;;;;;;;;5073838;28;20478;-82
2023/10/25 00:30:32;;;;;;;33.37;22.93;;;;;;;;;;5074512;28;20960;-83
2023/10/25 00:32:58;;;;;;;35.07;23.83;;;;;;;;;;5071587;28;20463;-83
2023/10/25 00:35:24;;;;;;;35.93;23.27;;;;;;;;;;5074538;28;20455;-83
2023/10/25 00:37:51;;;;;;;39.80;25.07;;;;;;;;;;5072658;28;20467;-83
2023/10/25 00:40:19;;;;;;;42.43;25.10;;;;;;;;;;5073686;28;20439;-83
2023/10/25 00:42:45;;;;;;;37.77;24.17;;;;;;;;;;5072344;28;20463;-83
2023/10/25 00:45:12;;;;;;;32.70;23.03;;;;;;;;;;5074461;28;20462;-83
2023/10/25 00:47:38;;;;;;;43.00;25.47;;;;;;;;;;5072060;28;20493;-83
2023/10/25 00:50:07;;;;;;;31.33;22.37;;;;;;;;;;5073406;28;20521;-82
2023/10/25 00:52:33;;;;;;;32.40;21.70;;;;;;;;;;5072627;28;20823;-83
2023/10/25 00:55:00;;;;;;;38.83;23.60;;;;;;;;;;5074097;28;20455;-83
2023/10/25 00:57:28;;;;;;;38.17;24.87;;;;;;;;;;5073407;28;20474;-83
2023/10/25 00:59:54;;;;;;;43.53;25.40;;;;;;;;;;5072550;28;20435;-83
2023/10/25 01:02:21;;;;;;;34.63;23.07;;;;;;;;;;5073441;28;20477;-84
2023/10/25 01:04:47;;;;;;;33.63;24.20;;;;;;;;;;5073771;28;20470;-83
2023/10/25 01:07:14;;;;;;;36.70;23.63;;;;;;;;;;5073179;28;21015;-83
2023/10/25 01:09:40;;;;;;;34.53;22.10;;;;;;;;;;5074079;28;20817;-84
2023/10/25 01:12:07;;;;;;;36.87;23.10;;;;;;;;;;5073515;28;20475;-84
2023/10/25 01:14:35;;;;;;;30.43;21.40;;;;;;;;;;5073688;28;20478;-83
2023/10/25 01:17:02;;;;;;;37.67;22.70;;;;;;;;;;5073318;28;20466;-84
2023/10/25 01:19:28;;;;;;;36.90;20.07;;;;;;;;;;5073977;28;20443;-85
2023/10/25 01:21:54;;;;;;;40.77;24.80;;;;;;;;;;5074384;28;20528;-82
2023/10/25 01:24:22;;;;;;;33.70;22.43;;;;;;;;;;5076944;28;20463;-83
2023/10/25 01:26:48;;;;;;;34.40;23.10;;;;;;;;;;5076450;28;20224;-84
2023/10/25 01:29:15;;;;;;;42.33;23.50;;;;;;;;;;5077443;28;20439;-84
2023/10/25 01:31:41;;;;;;;36.43;22.30;;;;;;;;;;5075790;28;20516;-84
2023/10/25 01:34:08;;;;;;;34.60;22.90;;;;;;;;;;5077613;28;20478;-83
2023/10/25 01:36:34;;;;;;;30.70;21.70;;;;;;;;;;5077176;28;20467;-84
2023/10/25 01:39:00;;;;;;;31.23;20.83;;;;;;;;;;5077664;28;20450;-84
2023/10/25 01:41:28;;;;;;;33.23;23.33;;;;;;;;;;5075868;28;20459;-84
2023/10/25 01:43:55;;;;;;;38.23;22.00;;;;;;;;;;5077052;28;20455;-84
2023/10/25 01:46:21;;;;;;;31.57;20.87;;;;;;;;;;5077023;28;20469;-84
2023/10/25 01:48:47;;;;;;;36.70;21.60;;;;;;;;;;5076865;28;20457;-84
2023/10/25 01:51:14;;;;;;;42.20;23.40;;;;;;;;;;5076909;28;20438;-83
2023/10/25 01:53:40;;;;;;;29.57;20.93;;;;;;;;;;5076905;28;20490;-84
2023/10/25 01:56:06;;;;;;;31.57;20.90;;;;;;;;;;5076420;28;20446;-84
2023/10/25 01:58:34;;;;;;;30.27;20.20;;;;;;;;;;5075995;28;20443;-84
2023/10/25 02:01:04;;;;;;;33.90;22.07;;;;;;;;;;5057764;28;20447;-82
2023/10/25 02:03:30;;;;;;;30.47;19.50;;;;;;;;;;5077167;28;20471;-82
2023/10/25 02:05:57;;;;;;;30.90;18.87;;;;;;;;;;5075814;28;20438;-82
2023/10/25 02:08:23;;;;;;;37.60;22.30;;;;;;;;;;5077537;28;20553;-82
2023/10/25 02:10:50;;;;;;;32.50;21.10;;;;;;;;;;5076645;28;20443;-84
2023/10/25 02:13:16;;;;;;;30.33;19.60;;;;;;;;;;5076159;28;20483;-83
2023/10/25 02:15:44;;;;;;;31.73;19.17;;;;;;;;;;5076416;28;20450;-84
2023/10/25 02:18:10;;;;;;;35.43;21.30;;;;;;;;;;5076210;28;20497;-83
2023/10/25 02:20:36;;;;;;;38.73;21.10;;;;;;;;;;5076806;28;20439;-84
2023/10/25 02:23:03;;;;;;;27.33;20.83;;;;;;;;;;5075956;28;20469;-83
2023/10/25 02:25:29;;;;;;;33.57;20.57;;;;;;;;;;5076230;28;20481;-83
2023/10/25 02:27:55;;;;;;;36.20;21.20;;;;;;;;;;5075778;28;20486;-83
2023/10/25 02:30:22;;;;;;;31.80;20.67;;;;;;;;;;5075624;28;20449;-83
2023/10/25 02:32:50;;;;;;;31.47;19.33;;;;;;;;;;5074483;28;20469;-84
2023/10/25 02:35:18;;;;;;;29.20;18.70;;;;;;;;;;5074979;28;20463;-83
2023/10/25 02:37:44;;;;;;;29.00;19.43;;;;;;;;;;5075618;28;20471;-84
2023/10/25 02:40:11;;;;;;;29.67;20.77;;;;;;;;;;5075053;28;20443;-84
2023/10/25 02:42:42;;;;;;;30.63;20.33;;;;;;;;;;5075992;28;20477;-84
2023/10/25 02:45:09;;;;;;;27.80;20.37;;;;;;;;;;5075752;28;20545;-84
2023/10/25 02:47:35;;;;;;;30.47;19.70;;;;;;;;;;5075676;28;20469;-83
2023/10/25 02:50:03;;;;;;;33.33;19.13;;;;;;;;;;5076031;28;20439;-83
2023/10/25 02:52:29;;;;;;;30.00;19.83;;;;;;;;;;5075418;28;20477;-84
2023/10/25 02:54:56;;;;;;;27.30;18.53;;;;;;;;;;5075912;28;20474;-84
2023/10/25 02:57:22;;;;;;;28.17;17.43;;;;;;;;;;5074071;28;20470;-83
2023/10/25 02:59:51;;;;;;;34.50;20.97;;;;;;;;;;5076267;28;20443;-83
2023/10/25 03:02:17;;;;;;;23.53;17.47;;;;;;;;;;5075139;28;20494;-84
2023/10/25 03:04:44;;;;;;;26.93;17.20;;;;;;;;;;5075767;28;20455;-83
2023/10/25 03:07:12;;;;;;;25.37;17.43;;;;;;;;;;5074119;28;20466;-84
2023/10/25 03:09:39;;;;;;;30.27;18.70;;;;;;;;;;5076213;28;20442;-84
2023/10/25 03:12:05;;;;;;;23.80;16.70;;;;;;;;;;5075440;28;20474;-83
2023/10/25 03:14:32;;;;;;;23.50;16.83;;;;;;;;;;5075803;28;20486;-83
2023/10/25 03:16:59;;;;;;;25.93;17.57;;;;;;;;;;5074938;28;20467;-83
2023/10/25 03:19:29;;;;;;;27.17;16.63;;;;;;;;;;5075203;28;20497;-84
2023/10/25 03:21:55;;;;;;;28.63;16.63;;;;;;;;;;5075182;28;20472;-83
2023/10/25 03:24:23;;;;;;;27.63;17.20;;;;;;;;;;5075301;28;20851;-83
2023/10/25 03:26:49;;;;;;;26.37;14.90;;;;;;;;;;5074077;28;20466;-83
2023/10/25 03:29:16;;;;;;;25.63;16.97;;;;;;;;;;5075465;28;20443;-83
2023/10/25 03:31:42;;;;;;;26.80;17.27;;;;;;;;;;5074449;28;20471;-84
2023/10/25 03:34:09;;;;;;;24.60;16.77;;;;;;;;;;5075011;28;20482;-83
2023/10/25 03:36:35;;;;;;;32.30;18.53;;;;;;;;;;5073967;28;20470;-84
2023/10/25 03:39:02;;;;;;;27.63;16.27;;;;;;;;;;5074057;28;20952;-84
2023/10/25 03:41:30;;;;;;;28.80;17.00;;;;;;;;;;5074505;28;20462;-83
2023/10/25 03:43:56;;;;;;;23.90;16.47;;;;;;;;;;5074524;28;20456;-83
2023/10/25 03:46:23;;;;;;;25.60;16.60;;;;;;;;;;5074674;28;20462;-83
2023/10/25 03:48:49;;;;;;;34.57;17.13;;;;;;;;;;5074586;28;20826;-83
2023/10/25 03:51:16;;;;;;;27.13;17.50;;;;;;;;;;5074444;28;20463;-84
2023/10/25 03:53:42;;;;;;;31.67;18.40;;;;;;;;;;5074302;28;20482;-83
2023/10/25 03:56:08;;;;;;;30.80;18.57;;;;;;;;;;5074516;28;20439;-85
2023/10/25 03:58:36;;;;;;;24.17;18.60;;;;;;;;;;5073693;28;20866;-84
2023/10/25 04:01:03;;;;;;;27.13;18.13;;;;;;;;;;5074050;28;20944;-84
2023/10/25 04:03:30;;;;;;;29.07;19.30;;;;;;;;;;5075055;28;20434;-84
2023/10/25 04:05:57;;;;;;;31.17;19.90;;;;;;;;;;5074104;28;20438;-84
2023/10/25 04:08:23;;;;;;;27.10;17.83;;;;;;;;;;5074878;28;20439;-84
2023/10/25 04:10:50;;;;;;;29.10;18.63;;;;;;;;;;5073619;28;20427;-84
2023/10/25 04:13:17;;;;;;;40.47;22.00;;;;;;;;;;5073911;28;20474;-83
2023/10/25 04:15:52;;;;;;;30.30;19.03;;;;;;;;;;5073286;28;20435;-83
2023/10/25 04:18:19;;;;;;;31.43;19.50;;;;;;;;;;5073123;28;20463;-83
2023/10/25 04:20:45;;;;;;;33.10;21.80;;;;;;;;;;5073057;28;20952;-84
2023/10/25 04:23:12;;;;;;;34.30;21.40;;;;;;;;;;5073635;28;20988;-82
2023/10/25 04:25:38;;;;;;;36.07;20.80;;;;;;;;;;5073010;28;20493;-82
2023/10/25 04:28:05;;;;;;;29.83;18.93;;;;;;;;;;5074236;28;20477;-82
2023/10/25 04:30:33;;;;;;;30.20;18.90;;;;;;;;;;5074088;28;20443;-82
2023/10/25 04:33:01;;;;;;;31.77;20.97;;;;;;;;;;5073557;28;20482;-82
2023/10/25 04:35:27;;;;;;;31.00;20.07;;;;;;;;;;5074613;28;20483;-83
2023/10/25 04:37:55;;;;;;;36.30;20.20;;;;;;;;;;5074036;28;21019;-82
2023/10/25 04:40:22;;;;;;;34.00;20.73;;;;;;;;;;5074739;28;20447;-82
2023/10/25 04:42:50;;;;;;;38.83;20.67;;;;;;;;;;5056059;28;20466;-83
2023/10/25 04:45:16;;;;;;;36.93;21.60;;;;;;;;;;5073936;28;20520;-82
2023/10/25 04:47:42;;;;;;;32.63;21.57;;;;;;;;;;5073033;28;20478;-84
2023/10/25 04:50:12;;;;;;;33.70;21.23;;;;;;;;;;5074447;28;20444;-84
2023/10/25 04:52:38;;;;;;;31.53;21.50;;;;;;;;;;5073339;28;20467;-82
2023/10/25 04:55:05;;;;;;;31.53;20.40;;;;;;;;;;5075134;28;20509;-85
2023/10/25 04:57:33;;;;;;;37.07;21.87;;;;;;;;;;5079104;28;20462;-85
2023/10/25 05:00:00;;;;;;;35.90;21.40;;;;;;;;;;5079481;28;20943;-84
2023/10/25 05:02:26;;;;;;;30.20;19.50;;;;;;;;;;5078713;28;20466;-84
2023/10/25 05:04:53;;;;;;;33.97;21.47;;;;;;;;;;5080392;28;20987;-84
2023/10/25 05:07:21;;;;;;;35.03;23.40;;;;;;;;;;5080002;28;20475;-84
2023/10/25 05:09:48;;;;;;;35.33;21.53;;;;;;;;;;5080282;28;20438;-84
2023/10/25 05:12:15;;;;;;;37.10;22.23;;;;;;;;;;5079740;28;20991;-84
2023/10/25 05:14:41;;;;;;;38.63;21.03;;;;;;;;;;5079989;28;20486;-84
2023/10/25 05:17:09;;;;;;;34.30;19.67;;;;;;;;;;5081335;28;20469;-84
2023/10/25 05:19:35;;;;;;;33.17;21.60;;;;;;;;;;5080496;28;20442;-84
2023/10/25 05:22:06;;;;;;;33.33;21.23;;;;;;;;;;5080065;28;21003;-84
2023/10/25 05:24:35;;;;;;;39.50;23.83;;;;;;;;;;5080423;28;20980;-82
2023/10/25 05:27:02;;;;;;;30.03;20.50;;;;;;;;;;5079888;28;20544;-83
2023/10/25 05:29:29;;;;;;;31.67;21.40;;;;;;;;;;5079865;28;20446;-83
2023/10/25 05:31:56;;;;;;;30.60;21.40;;;;;;;;;;5080117;28;20474;-83
2023/10/25 05:34:23;;;;;;;46.63;22.23;;;;;;;;;;5079654;28;20509;-82
2023/10/25 05:36:50;;;;;;;37.90;23.37;;;;;;;;;;5079861;28;20467;-82
2023/10/25 05:39:16;;;;;;;32.10;20.47;;;;;;;;;;5079900;28;20446;-83
2023/10/25 05:41:45;;;;;;;29.30;20.53;;;;;;;;;;5080228;28;20466;-83
2023/10/25 05:44:14;;;;;;;29.50;20.27;;;;;;;;;;5080289;28;20455;-83
2023/10/25 05:46:41;;;;;;;31.43;20.03;;;;;;;;;;5079847;28;20545;-83
2023/10/25 05:49:08;;;;;;;32.30;20.97;;;;;;;;;;5079884;28;20457;-84
2023/10/25 05:51:35;;;;;;;29.57;21.27;;;;;;;;;;5079538;28;20462;-83
2023/10/25 05:54:01;;;;;;;39.80;22.93;;;;;;;;;;5080083;28;20489;-83
2023/10/25 05:56:28;;;;;;;30.30;21.50;;;;;;;;;;5079128;28;21015;-82
2023/10/25 05:58:56;;;;;;;33.67;21.30;;;;;;;;;;5079794;28;20443;-82
2023/10/25 06:01:27;;;;;;;32.03;22.80;;;;;;;;;;5079954;28;20469;-82
2023/10/25 06:03:55;;;;;;;36.50;22.73;;;;;;;;;;5079845;28;20469;-84
2023/10/25 06:06:22;;;;;;;38.30;22.60;;;;;;;;;;5078990;28;20462;-84
2023/10/25 06:08:49;;;;;;;40.27;23.97;;;;;;;;;;5076485;28;20807;-84
2023/10/25 06:11:15;;;;;;;37.50;20.17;;;;;;;;;;5076106;28;20442;-84
2023/10/25 06:13:42;;;;;;;37.30;22.97;;;;;;;;;;5075121;28;20517;-84
2023/10/25 06:16:10;;;;;;;35.40;23.77;;;;;;;;;;5076611;28;20485;-84
2023/10/25 06:18:37;;;;;;;35.77;22.80;;;;;;;;;;5076235;28;20435;-84
2023/10/25 06:21:03;;;;;;;32.20;22.50;;;;;;;;;;5076196;28;20443;-84
2023/10/25 06:23:29;;;;;;;39.47;23.23;;;;;;;;;;5075651;28;20435;-84
2023/10/25 06:25:56;;;;;;;36.87;23.70;;;;;;;;;;5076078;28;20457;-83
2023/10/25 06:28:22;;;;;;;40.63;23.27;;;;;;;;;;5075278;28;21009;-82
2023/10/25 06:30:49;;;;;;;34.63;24.13;;;;;;;;;;5076661;28;20466;-83
2023/10/25 06:33:17;;;;;;;39.30;23.10;;;;;;;;;;5075712;28;21015;-85
2023/10/25 06:35:45;;;;;;;35.70;22.67;;;;;;;;;;5076302;28;20531;-82
2023/10/25 06:38:12;;;;;;;45.97;23.43;;;;;;;;;;5075881;28;20467;-83
2023/10/25 06:40:38;;;;;;;35.63;23.00;;;;;;;;;;5076331;28;20933;-83
2023/10/25 06:43:05;;;;;;;37.33;22.00;;;;;;;;;;5076428;28;20479;-82
2023/10/25 06:45:32;;;;;;;33.50;22.07;;;;;;;;;;5075050;28;20478;-85
2023/10/25 06:48:00;;;;;;;39.00;22.73;;;;;;;;;;5074782;28;20475;-84
2023/10/25 06:50:29;;;;;;;28.10;19.80;;;;;;;;;;5076508;28;20443;-84
2023/10/25 06:52:56;;;;;;;30.27;20.27;;;;;;;;;;5075122;28;20478;-84
2023/10/25 06:55:22;;;;;;;32.17;21.20;;;;;;;;;;5075733;28;20482;-83
2023/10/25 06:57:49;;;;;;;34.47;21.40;;;;;;;;;;5075443;28;20470;-84
2023/10/25 07:00:16;;;;;;;30.00;20.77;;;;;;;;;;5076261;28;20450;-84
2023/10/25 07:02:48;;;;;;;35.10;21.17;;;;;;;;;;5075339;28;20471;-84
2023/10/25 07:05:15;;;;;;;31.77;20.90;;;;;;;;;;5076226;28;20454;-84
2023/10/25 07:07:43;;;;;;;42.87;20.53;;;;;;;;;;5075313;28;20466;-84
2023/10/25 07:10:11;;;;;;;35.03;21.77;;;;;;;;;;5074456;28;20451;-84
2023/10/25 07:12:37;;;;;;;39.60;21.90;;;;;;;;;;5075653;28;20470;-84
2023/10/25 07:15:04;;;;;;;35.47;21.87;;;;;;;;;;5074926;28;20988;-84
2023/10/25 07:17:30;;;;;;;32.87;20.97;;;;;;;;;;5075549;28;20471;-84
2023/10/25 07:19:58;;;;;;;30.20;20.07;;;;;;;;;;5075143;28;20450;-83
2023/10/25 07:22:24;;;;;;;36.03;22.50;;;;;;;;;;5075582;28;20470;-83
2023/10/25 07:24:52;;;;;;;33.50;21.53;;;;;;;;;;5076049;28;20462;-83
2023/10/25 07:27:19;;;;;;;29.63;19.00;;;;;;;;;;5074553;28;20471;-85
2023/10/25 07:29:45;;;;;;;41.27;22.00;;;;;;;;;;5074556;28;20504;-84
2023/10/25 07:32:11;;;;;;;32.87;20.90;;;;;;;;;;5074790;28;20478;-83
2023/10/25 07:34:38;;;;;;;29.80;20.07;;;;;;;;;;5074447;28;20532;-84
2023/10/25 07:37:06;;;;;;;31.80;20.83;;;;;;;;;;5074861;28;20875;-84
2023/10/25 07:39:32;;;;;;;29.27;19.47;;;;;;;;;;5075084;28;20446;-84
2023/10/25 07:42:01;;;;;;;30.00;18.73;;;;;;;;;;5075247;28;20462;-83
2023/10/25 07:44:27;;;;;;;35.03;21.40;;;;;;;;;;5075296;28;20467;-84
2023/10/25 07:46:54;;;;;;;26.93;19.60;;;;;;;;;;5074563;28;20467;-84
2023/10/25 07:49:20;;;;;;;32.77;21.23;;;;;;;;;;5074904;28;20439;-84
2023/10/25 07:51:46;;;;;;;30.60;22.73;;;;;;;;;;5073932;28;21038;-84
2023/10/25 07:54:13;;;;;;;33.97;20.90;;;;;;;;;;5073826;28;20463;-84
2023/10/25 07:56:38;;;;;;;30.33;19.53;;;;;;;;;;5074819;28;20993;-82
2023/10/25 07:59:06;;;;;;;31.30;19.00;;;;;;;;;;5074951;28;20449;-82
2023/10/25 08:01:33;;;;;;;32.23;20.73;;;;;;;;;;5074858;28;20229;-84
2023/10/25 08:03:59;;;;;;;30.57;19.50;;;;;;;;;;5075122;28;20459;-84
2023/10/25 08:06:25;;;;;;;31.50;19.50;;;;;;;;;;5074980;28;20466;-83
2023/10/25 08:08:53;;;;;;;34.50;20.93;;;;;;;;;;5075012;28;20435;-82
2023/10/25 08:11:19;;;;;;;28.73;19.20;;;;;;;;;;5074456;28;20469;-82
2023/10/25 08:13:46;;;;;;;28.20;18.47;;;;;;;;;;5074940;28;20455;-82
2023/10/25 08:16:14;;;;;;;34.73;19.90;;;;;;;;;;5074559;28;20561;-83
2023/10/25 08:18:40;;;;;;;26.70;18.40;;;;;;;;;;5074743;28;20442;-83
2023/10/25 08:21:12;;;;;;;31.87;18.50;;;;;;;;;;5073111;28;20453;-84
2023/10/25 08:23:38;;;;;;;29.40;18.83;;;;;;;;;;5073954;28;20466;-84
2023/10/25 08:26:05;;;;;;;27.60;18.50;;;;;;;;;;5072824;28;20439;-84
2023/10/25 08:28:31;;;;;;;24.20;17.43;;;;;;;;;;5074261;28;20986;-84
2023/10/25 08:30:58;;;;;;;28.00;16.80;;;;;;;;;;5073496;28;20807;-84
2023/10/25 08:33:25;;;;;;;30.83;19.43;;;;;;;;;;5074456;28;20469;-84
2023/10/25 08:36:00;;;;;;;23.43;17.23;;;;;;;;;;5073635;28;20478;-84
2023/10/25 08:38:26;;;;;;;31.73;17.37;;;;;;;;;;5074289;28;20446;-84
2023/10/25 08:40:53;;;;;;;23.37;16.87;;;;;;;;;;5074482;28;20910;-84
2023/10/25 08:43:20;;;;;;;30.23;16.07;;;;;;;;;;5073949;28;20984;-84
2023/10/25 08:45:47;;;;;;;24.60;16.63;;;;;;;;;;5074547;28;20442;-84
2023/10/25 08:48:14;;;;;;;22.60;15.30;;;;;;;;;;5073485;28;20473;-84
2023/10/25 08:50:42;;;;;;;24.20;14.80;;;;;;;;;;5072727;28;20851;-82
2023/10/25 08:53:09;;;;;;;19.70;16.20;;;;;;;;;;5073679;28;20478;-83
2023/10/25 08:55:36;;;;;;;26.63;14.53;;;;;;;;;;5072979;28;20810;-84
2023/10/25 08:58:02;;;;;;;17.60;14.20;;;;;;;;;;5073693;28;20463;-84
2023/10/25 09:00:31;;;;;;;23.20;15.23;;;;;;;;;;5072863;28;20443;-84
2023/10/25 09:02:59;;;;;;;18.87;15.00;;;;;;;;;;5074364;28;20466;-84
2023/10/25 09:05:25;;;;;;;19.83;13.70;;;;;;;;;;5073181;28;20463;-82
2023/10/25 09:07:53;;;;;;;20.63;14.73;;;;;;;;;;5073718;28;20463;-84
2023/10/25 09:10:22;;;;;;;23.13;14.70;;;;;;;;;;5074676;28;20450;-83
2023/10/25 09:12:49;;;;;;;21.20;13.93;;;;;;;;;;5074255;28;21039;-82
2023/10/25 09:15:28;;;;;;;21.20;13.80;;;;;;;;;;5074279;28;20486;-84
2023/10/25 09:17:56;;;;;;;17.73;12.10;;;;;;;;;;5074066;28;20466;-84
2023/10/25 09:20:27;;;;;;;20.53;13.20;;;;;;;;;;5073904;28;20936;-82
2023/10/25 09:23:08;;;;;;;23.43;12.63;;;;;;;;;;5072484;28;20466;-82
2023/10/25 09:25:37;;;;;;;18.57;13.23;;;;;;;;;;5073905;28;20811;-83
2023/10/25 09:28:03;;;;;;;21.43;13.17;;;;;;;;;;5072592;28;20987;-82
2023/10/25 09:30:30;;;;;;;20.43;12.97;;;;;;;;;;5073691;28;20454;-82
2023/10/25 09:32:57;;;;;;;17.60;12.30;;;;;;;;;;5073283;28;20467;-83
2023/10/25 09:35:23;;;;;;;14.67;10.80;;;;;;;;;;5073892;28;20482;-82
2023/10/25 09:37:50;;;;;;;22.23;11.13;;;;;;;;;;5071674;28;20475;-83
2023/10/25 09:40:18;;;;;;;22.93;11.27;;;;;;;;;;5073667;28;20443;-83
2023/10/25 09:42:48;;;;;;;21.57;10.83;;;;;;;;;;5073867;28;20520;-83
2023/10/25 09:45:18;;;;;;;15.50;11.00;;;;;;;;;;5077730;28;20796;-82
2023/10/25 09:47:46;;;;;;;20.90;10.73;;;;;;;;;;5076907;28;20924;-83
2023/10/25 09:50:16;;;;;;;19.10;11.93;;;;;;;;;;5059782;28;20496;-84
2023/10/25 09:52:44;;;;;;;18.57;14.20;;;;;;;;;;5076915;28;20454;-84
2023/10/25 09:55:15;;;;;;;15.73;11.23;;;;;;;;;;5077453;28;20463;-85
2023/10/25 09:57:43;;;;;;;12.80;10.30;;;;;;;;;;5075905;28;20478;-84
2023/10/25 10:00:11;;;;;;;16.83;11.47;;;;;;;;;;5078047;28;20445;-84
2023/10/25 10:02:43;;;;;;;19.10;11.80;;;;;;;;;;5058744;28;20509;-84
2023/10/25 10:05:12;;;;;;;15.57;11.00;;;;;;;;;;5077604;28;20566;-84
2023/10/25 10:07:41;;;;;;;14.20;11.20;;;;;;;;;;5076402;28;20829;-84
2023/10/25 10:10:13;;;;;;;15.20;10.60;;;;;;;;;;5075866;28;20504;-84
2023/10/25 10:12:40;;;;;;;15.43;9.97;;;;;;;;;;5076374;28;20470;-84
2023/10/25 10:15:12;;;;;;;14.47;9.20;;;;;;;;;;5076962;28;20844;-85
2023/10/25 10:17:41;;;;;;;13.30;9.93;;;;;;;;;;5076816;28;20460;-85
2023/10/25 10:20:08;;;;;;;16.40;10.20;;;;;;;;;;5076504;28;20422;-84
2023/10/25 10:22:34;;;;;;;10.30;9.17;;;;;;;;;;5074990;28;20848;-84
2023/10/25 10:25:03;;;;;;;12.00;9.20;;;;;;;;;;5075513;28;20459;-83
2023/10/25 10:28:00;;;;;;;16.70;10.27;;;;;;;;;;5076112;28;20482;-84
2023/10/25 10:30:39;;;;;;;12.17;9.20;;;;;;;;;;5075468;28;20442;-85
2023/10/25 10:33:08;;;;;;;15.10;8.73;;;;;;;;;;5075215;28;20474;-84
2023/10/25 10:35:34;;;;;;;10.80;8.80;;;;;;;;;;5075521;28;20490;-84
2023/10/25 10:38:03;;;;;;;13.30;8.70;;;;;;;;;;5076513;28;20467;-84
2023/10/25 10:40:29;;;;;;;11.47;7.80;;;;;;;;;;5076713;28;20787;-84
2023/10/25 10:42:57;;;;;;;15.40;8.90;;;;;;;;;;5076710;28;20791;-84
2023/10/25 10:45:24;;;;;;;11.90;8.90;;;;;;;;;;5076988;28;20459;-84
2023/10/25 10:47:53;;;;;;;16.13;8.90;;;;;;;;;;5076646;28;20922;-84
2023/10/25 10:50:21;;;;;;;14.00;8.60;;;;;;;;;;5075716;28;20416;-84
2023/10/25 10:52:48;;;;;;;15.40;7.03;;;;;;;;;;5075977;28;20472;-84
2023/10/25 10:55:15;;;;;;;11.67;7.50;;;;;;;;;;5076110;28;20985;-85
2023/10/25 10:57:41;;;;;;;13.97;9.33;;;;;;;;;;5074961;28;20538;-84
2023/10/25 11:00:09;;;;;;;10.47;7.60;;;;;;;;;;5058631;28;20824;-85
2023/10/25 11:02:36;;;;;;;11.30;7.80;;;;;;;;;;5076062;28;20449;-84
2023/10/25 11:05:04;;;;;;;9.20;6.27;;;;;;;;;;5076979;28;20434;-84
2023/10/25 11:07:31;;;;;;;10.50;7.60;;;;;;;;;;5076105;28;20999;-85
2023/10/25 11:09:57;;;;;;;16.87;10.07;;;;;;;;;;5058360;28;20409;-83
2023/10/25 11:12:24;;;;;;;11.77;8.33;;;;;;;;;;5075550;28;20478;-85
2023/10/25 11:14:50;;;;;;;17.20;8.13;;;;;;;;;;5074914;28;20455;-85
2023/10/25 11:17:17;;;;;;;11.50;7.53;;;;;;;;;;5076512;28;20454;-84
2023/10/25 11:19:44;;;;;;;7.40;6.70;;;;;;;;;;5078644;28;20439;-85
2023/10/25 11:22:12;;;;;;;14.20;6.80;;;;;;;;;;5060578;28;20465;-84
2023/10/25 11:24:39;;;;;;;11.83;6.67;;;;;;;;;;5075689;28;20977;-83
2023/10/25 11:27:05;;;;;;;7.77;6.00;;;;;;;;;;5074673;28;20507;-84
2023/10/25 11:29:32;;;;;;;13.07;6.00;;;;;;;;;;5076315;28;20406;-83
2023/10/25 11:32:01;;;;;;;8.73;6.03;;;;;;;;;;5076101;28;20449;-83
2023/10/25 11:34:30;;;;;;;7.10;5.60;;;;;;;;;;5076452;28;20600;-83
2023/10/25 11:36:57;;;;;;;12.53;6.40;;;;;;;;;;5075623;28;20471;-83
2023/10/25 11:39:25;;;;;;;9.87;6.00;;;;;;;;;;5075816;28;20501;-83
2023/10/25 11:41:51;;;;;;;7.60;6.00;;;;;;;;;;5075851;28;20472;-82
2023/10/25 11:44:21;;;;;;;8.90;6.30;;;;;;;;;;5075258;28;20441;-85
2023/10/25 11:46:47;;;;;;;12.47;6.60;;;;;;;;;;5075546;28;20442;-83
2023/10/25 11:49:18;;;;;;;7.93;6.40;;;;;;;;;;5075860;28;20424;-85
2023/10/25 11:51:46;;;;;;;8.33;6.10;;;;;;;;;;5075010;28;21018;-85
2023/10/25 11:54:13;;;;;;;8.03;7.23;;;;;;;;;;5074521;28;20438;-85
2023/10/25 11:56:41;;;;;;;7.63;6.87;;;;;;;;;;5073812;28;20479;-84
2023/10/25 11:59:08;;;;;;;11.20;6.40;;;;;;;;;;5075871;28;20413;-85
2023/10/25 12:01:34;;;;;;;9.43;6.10;;;;;;;;;;5075238;28;20463;-84
2023/10/25 12:04:00;;;;;;;12.23;5.90;;;;;;;;;;5074474;28;20448;-85
2023/10/25 12:06:27;;;;;;;9.47;5.80;;;;;;;;;;5072733;28;20536;-85
2023/10/25 12:08:53;;;;;;;9.20;4.90;;;;;;;;;;5073972;28;20827;-84
2023/10/25 12:11:20;;;;;;;7.10;5.20;;;;;;;;;;5074464;28;20948;-86
2023/10/25 12:13:48;;;;;;;13.33;5.40;;;;;;;;;;5076123;28;20434;-83
2023/10/25 12:16:14;;;;;;;11.00;5.63;;;;;;;;;;5076094;28;20486;-83
2023/10/25 12:18:41;;;;;;;9.33;5.50;;;;;;;;;;5077062;28;20416;-84
2023/10/25 12:21:08;;;;;;;8.90;5.33;;;;;;;;;;5075939;28;20462;-85
2023/10/25 12:23:34;;;;;;;9.20;5.03;;;;;;;;;;5075232;28;20517;-83
2023/10/25 12:26:02;;;;;;;8.73;5.30;;;;;;;;;;5075324;28;20830;-84
2023/10/25 12:28:28;;;;;;;8.73;5.63;;;;;;;;;;5075952;28;20534;-84
2023/10/25 12:30:56;;;;;;;12.60;5.37;;;;;;;;;;5075580;28;20478;-84
2023/10/25 12:33:22;;;;;;;8.77;5.17;;;;;;;;;;5074724;28;20446;-84
2023/10/25 12:35:49;;;;;;;8.17;5.63;;;;;;;;;;5076156;28;20425;-85
2023/10/25 12:38:15;;;;;;;9.77;6.60;;;;;;;;;;5075874;28;20456;-84
2023/10/25 12:40:42;;;;;;;8.60;6.30;;;;;;;;;;5075618;28;20409;-84
2023/10/25 12:43:08;;;;;;;9.03;5.43;;;;;;;;;;5074166;28;20846;-85
2023/10/25 12:45:35;;;;;;;11.07;5.23;;;;;;;;;;5076891;28;20964;-83
2023/10/25 12:48:03;;;;;;;8.13;5.13;;;;;;;;;;5074358;28;20474;-85
2023/10/25 12:50:29;;;;;;;10.23;6.20;;;;;;;;;;5075811;28;20848;-85
2023/10/25 12:52:55;;;;;;;10.47;5.27;;;;;;;;;;5075338;28;20446;-85
2023/10/25 12:55:22;;;;;;;8.60;4.50;;;;;;;;;;5073910;28;20475;-84
2023/10/25 12:57:48;;;;;;;9.27;5.40;;;;;;;;;;5074042;28;20474;-84
2023/10/25 13:00:15;;;;;;;9.37;5.90;;;;;;;;;;5073734;28;20447;-85
2023/10/25 13:02:41;;;;;;;10.50;5.73;;;;;;;;;;5074540;28;20471;-84
2023/10/25 13:05:09;;;;;;;7.17;4.30;;;;;;;;;;5074081;28;20466;-85
2023/10/25 13:07:36;;;;;;;9.33;5.10;;;;;;;;;;5074906;28;20471;-85
2023/10/25 13:10:02;;;;;;;7.67;4.97;;;;;;;;;;5075318;28;20417;-84
2023/10/25 13:12:29;;;;;;;14.93;5.43;;;;;;;;;;5074874;28;20452;-84
2023/10/25 13:14:55;;;;;;;12.20;5.83;;;;;;;;;;5073377;28;20438;-85
2023/10/25 13:17:22;;;;;;;6.77;4.60;;;;;;;;;;5078285;28;20475;-84
2023/10/25 13:19:49;;;;;;;7.30;4.97;;;;;;;;;;5079388;28;20420;-85
2023/10/25 13:22:16;;;;;;;5.33;4.70;;;;;;;;;;5077323;28;20452;-84
2023/10/25 13:24:43;;;;;;;8.50;4.93;;;;;;;;;;5079091;28;20433;-84
2023/10/25 13:27:09;;;;;;;5.93;4.70;;;;;;;;;;5078069;28;20442;-85
2023/10/25 13:29:38;;;;;;;5.60;5.03;;;;;;;;;;5079213;28;20406;-84
2023/10/25 13:32:04;;;;;;;8.90;7.07;;;;;;;;;;5079107;28;20471;-82
2023/10/25 13:34:31;;;;;;;8.30;6.60;;;;;;;;;;5077317;28;20520;-83
2023/10/25 13:36:57;;;;;;;7.40;6.03;;;;;;;;;;5078539;28;20478;-83
2023/10/25 13:39:25;;;;;;;6.83;6.10;;;;;;;;;;5078512;28;20417;-83
2023/10/25 13:41:51;;;;;;;12.53;6.23;;;;;;;;;;5078069;28;20441;-84
2023/10/25 13:44:19;;;;;;;11.90;6.70;;;;;;;;;;5078829;28;20459;-85
2023/10/25 13:46:45;;;;;;;9.97;8.37;;;;;;;;;;5076939;28;20475;-86
2023/10/25 13:49:11;;;;;;;10.50;6.97;;;;;;;;;;5078385;28;20454;-83
2023/10/25 13:51:40;;;;;;;9.13;7.40;;;;;;;;;;5077286;28;20470;-83
2023/10/25 13:54:06;;;;;;;10.03;6.73;;;;;;;;;;5076871;28;20512;-83
2023/10/25 13:56:34;;;;;;;7.73;6.70;;;;;;;;;;5077462;28;20450;-83
2023/10/25 13:59:01;;;;;;;13.20;7.47;;;;;;;;;;5078531;28;20992;-83
2023/10/25 14:01:28;;;;;;;9.30;6.80;;;;;;;;;;5078138;28;20889;-84
2023/10/25 14:03:54;;;;;;;13.23;6.83;;;;;;;;;;5078195;28;20553;-83
2023/10/25 14:06:21;;;;;;;10.97;7.07;;;;;;;;;;5077846;28;20996;-84
2023/10/25 14:08:47;;;;;;;9.10;7.70;;;;;;;;;;5078444;28;20778;-83
2023/10/25 14:11:14;;;;;;;7.77;5.80;;;;;;;;;;5077462;28;20417;-84
2023/10/25 14:13:42;;;;;;;8.27;7.23;;;;;;;;;;5076936;28;20525;-83
2023/10/25 14:16:09;;;;;;;10.17;6.70;;;;;;;;;;5077786;28;20418;-83
2023/10/25 14:18:35;;;;;;;7.70;6.97;;;;;;;;;;5078166;28;20485;-82
2023/10/25 14:21:02;;;;;;;12.00;7.30;;;;;;;;;;5077117;28;20435;-85
2023/10/25 14:23:29;;;;;;;8.57;6.53;;;;;;;;;;5078265;28;20443;-83